sensor_id;sensor_type;location;lat;lon;timestamp;P1;durP1;ratioP1;P2;durP2;ratioP2
7003;SDS011;3542;48.812;9.146;2023-03-12T00:01:59;3.90;;;1.80;;
7003;SDS011;3542;48.812;9.146;2023-03-12T00:04:25;2.93;;;1.70;;
7003;SDS011;3542;48.812;9.146;2023-03-12T00:06:51;3.93;;;1.97;;
7003;SDS011;3542;48.812;9.146;2023-03-12T00:09:17;4.07;;;3.07;;
7003;SDS011;3542;48.812;9.146;2023-03-12T00:11:43;6.07;;;1.93;;
7003;SDS011;3542;48.812;9.146;2023-03-12T00:14:08;3.10;;;2.27;;
7003;SDS011;3542;48.812;9.146;2023-03-12T00:16:34;6.83;;;2.20;;
7003;SDS011;3542;48.812;9.146;2023-03-12T00:18:59;2.60;;;2.10;;
7003;SDS011;3542;48.812;9.146;2023-03-12T00:21:25;10.47;;;2.30;;
7003;SDS011;3542;48.812;9.146;2023-03-12T00:23:51;8.73;;;3.03;;
7003;SDS011;3542;48.812;9.146;2023-03-12T00:26:17;5.37;;;2.23;;
7003;SDS011;3542;48.812;9.146;2023-03-12T00:28:43;2.97;;;2.13;;
7003;SDS011;3542;48.812;9.146;2023-03-12T00:31:21;5.13;;;1.87;;
7003;SDS011;3542;48.812;9.146;2023-03-12T00:33:52;3.17;;;1.70;;
7003;SDS011;3542;48.812;9.146;2023-03-12T00:36:19;3.00;;;1.90;;
7003;SDS011;3542;48.812;9.146;2023-03-12T00:38:48;2.07;;;1.87;;
7003;SDS011;3542;48.812;9.146;2023-03-12T00:41:14;3.37;;;2.13;;
7003;SDS011;3542;48.812;9.146;2023-03-12T00:43:40;5.50;;;2.60;;
7003;SDS011;3542;48.812;9.146;2023-03-12T00:46:05;6.97;;;2.60;;
7003;SDS011;3542;48.812;9.146;2023-03-12T00:48:31;9.90;;;2.60;;
7003;SDS011;3542;48.812;9.146;2023-03-12T00:50:57;7.23;;;3.57;;
7003;SDS011;3542;48.812;9.146;2023-03-12T00:53:22;3.17;;;2.30;;
7003;SDS011;3542;48.812;9.146;2023-03-12T00:55:48;3.03;;;2.23;;
7003;SDS011;3542;48.812;9.146;2023-03-12T00:58:13;3.27;;;2.03;;
7003;SDS011;3542;48.812;9.146;2023-03-12T01:00:39;10.70;;;3.10;;
7003;SDS011;3542;48.812;9.146;2023-03-12T01:03:04;6.80;;;2.90;;
7003;SDS011;3542;48.812;9.146;2023-03-12T01:05:30;2.47;;;2.27;;
7003;SDS011;3542;48.812;9.146;2023-03-12T01:07:56;6.57;;;2.80;;
7003;SDS011;3542;48.812;9.146;2023-03-12T01:10:21;6.73;;;2.23;;
7003;SDS011;3542;48.812;9.146;2023-03-12T01:12:47;4.40;;;3.50;;
7003;SDS011;3542;48.812;9.146;2023-03-12T01:15:13;4.77;;;2.43;;
7003;SDS011;3542;48.812;9.146;2023-03-12T01:17:41;5.70;;;2.80;;
7003;SDS011;3542;48.812;9.146;2023-03-12T01:20:06;2.97;;;2.40;;
7003;SDS011;3542;48.812;9.146;2023-03-12T01:22:33;2.97;;;1.83;;
7003;SDS011;3542;48.812;9.146;2023-03-12T01:24:59;10.67;;;3.00;;
7003;SDS011;3542;48.812;9.146;2023-03-12T01:27:25;10.70;;;2.13;;
7003;SDS011;3542;48.812;9.146;2023-03-12T01:29:50;7.27;;;3.17;;
7003;SDS011;3542;48.812;9.146;2023-03-12T01:32:16;4.53;;;2.27;;
7003;SDS011;3542;48.812;9.146;2023-03-12T01:34:42;3.30;;;2.30;;
7003;SDS011;3542;48.812;9.146;2023-03-12T01:37:08;4.00;;;2.43;;
7003;SDS011;3542;48.812;9.146;2023-03-12T01:39:33;6.43;;;2.70;;
7003;SDS011;3542;48.812;9.146;2023-03-12T01:41:59;5.03;;;2.73;;
7003;SDS011;3542;48.812;9.146;2023-03-12T01:44:25;8.30;;;2.93;;
7003;SDS011;3542;48.812;9.146;2023-03-12T01:46:51;6.20;;;2.40;;
7003;SDS011;3542;48.812;9.146;2023-03-12T01:49:18;3.27;;;2.17;;
7003;SDS011;3542;48.812;9.146;2023-03-12T01:51:48;4.87;;;2.83;;
7003;SDS011;3542;48.812;9.146;2023-03-12T01:54:23;5.03;;;2.87;;
7003;SDS011;3542;48.812;9.146;2023-03-12T01:56:54;5.80;;;2.83;;
7003;SDS011;3542;48.812;9.146;2023-03-12T01:59:25;10.13;;;2.87;;
7003;SDS011;3542;48.812;9.146;2023-03-12T03:32:34;7.97;;;4.50;;
7003;SDS011;3542;48.812;9.146;2023-03-12T03:35:00;13.03;;;5.97;;
7003;SDS011;3542;48.812;9.146;2023-03-12T03:37:26;12.50;;;6.00;;
7003;SDS011;3542;48.812;9.146;2023-03-12T03:39:51;9.07;;;5.90;;
7003;SDS011;3542;48.812;9.146;2023-03-12T03:42:17;9.40;;;5.90;;
7003;SDS011;3542;48.812;9.146;2023-03-12T03:44:43;10.30;;;6.30;;
7003;SDS011;3542;48.812;9.146;2023-03-12T03:47:08;12.27;;;7.00;;
7003;SDS011;3542;48.812;9.146;2023-03-12T03:49:34;9.80;;;6.70;;
7003;SDS011;3542;48.812;9.146;2023-03-12T03:51:59;11.27;;;6.60;;
7003;SDS011;3542;48.812;9.146;2023-03-12T03:54:25;13.33;;;6.50;;
7003;SDS011;3542;48.812;9.146;2023-03-12T03:56:50;10.20;;;6.77;;
7003;SDS011;3542;48.812;9.146;2023-03-12T03:59:16;12.80;;;7.67;;
7003;SDS011;3542;48.812;9.146;2023-03-12T04:01:41;6.50;;;5.70;;
7003;SDS011;3542;48.812;9.146;2023-03-12T04:04:07;9.33;;;6.23;;
7003;SDS011;3542;48.812;9.146;2023-03-12T04:06:32;8.30;;;7.03;;
7003;SDS011;3542;48.812;9.146;2023-03-12T04:08:58;9.63;;;6.90;;
7003;SDS011;3542;48.812;9.146;2023-03-12T04:11:24;9.43;;;6.83;;
7003;SDS011;3542;48.812;9.146;2023-03-12T04:13:50;11.03;;;5.93;;
7003;SDS011;3542;48.812;9.146;2023-03-12T04:16:16;8.93;;;5.83;;
7003;SDS011;3542;48.812;9.146;2023-03-12T04:18:42;10.93;;;6.27;;
7003;SDS011;3542;48.812;9.146;2023-03-12T04:21:08;6.80;;;5.97;;
7003;SDS011;3542;48.812;9.146;2023-03-12T04:23:35;12.60;;;6.57;;
7003;SDS011;3542;48.812;9.146;2023-03-12T04:26:01;18.97;;;7.07;;
7003;SDS011;3542;48.812;9.146;2023-03-12T04:28:28;8.60;;;5.90;;
7003;SDS011;3542;48.812;9.146;2023-03-12T04:30:54;12.93;;;5.40;;
7003;SDS011;3542;48.812;9.146;2023-03-12T04:33:23;12.83;;;7.03;;
7003;SDS011;3542;48.812;9.146;2023-03-12T04:35:50;18.23;;;6.90;;
7003;SDS011;3542;48.812;9.146;2023-03-12T04:38:17;9.07;;;5.70;;
7003;SDS011;3542;48.812;9.146;2023-03-12T04:40:43;14.20;;;5.60;;
7003;SDS011;3542;48.812;9.146;2023-03-12T04:43:08;10.83;;;6.03;;
7003;SDS011;3542;48.812;9.146;2023-03-12T04:45:34;8.73;;;6.40;;
7003;SDS011;3542;48.812;9.146;2023-03-12T04:47:59;8.50;;;5.80;;
7003;SDS011;3542;48.812;9.146;2023-03-12T04:50:25;9.90;;;6.70;;
7003;SDS011;3542;48.812;9.146;2023-03-12T04:52:50;12.20;;;7.70;;
7003;SDS011;3542;48.812;9.146;2023-03-12T04:55:16;13.87;;;6.90;;
7003;SDS011;3542;48.812;9.146;2023-03-12T04:57:41;10.23;;;6.70;;
7003;SDS011;3542;48.812;9.146;2023-03-12T05:00:07;6.67;;;5.87;;
7003;SDS011;3542;48.812;9.146;2023-03-12T05:02:37;8.60;;;5.47;;
7003;SDS011;3542;48.812;9.146;2023-03-12T05:05:03;7.63;;;6.37;;
7003;SDS011;3542;48.812;9.146;2023-03-12T05:07:30;11.60;;;7.00;;
7003;SDS011;3542;48.812;9.146;2023-03-12T05:09:55;9.80;;;6.60;;
7003;SDS011;3542;48.812;9.146;2023-03-12T05:12:21;12.23;;;6.17;;
7003;SDS011;3542;48.812;9.146;2023-03-12T05:14:46;11.93;;;7.40;;
7003;SDS011;3542;48.812;9.146;2023-03-12T05:17:12;9.10;;;6.50;;
7003;SDS011;3542;48.812;9.146;2023-03-12T05:19:37;15.40;;;8.60;;
7003;SDS011;3542;48.812;9.146;2023-03-12T05:22:03;7.93;;;5.77;;
7003;SDS011;3542;48.812;9.146;2023-03-12T05:24:28;13.33;;;6.50;;
7003;SDS011;3542;48.812;9.146;2023-03-12T05:26:54;11.40;;;6.53;;
7003;SDS011;3542;48.812;9.146;2023-03-12T05:29:19;13.17;;;7.40;;
7003;SDS011;3542;48.812;9.146;2023-03-12T05:31:45;12.60;;;6.87;;
7003;SDS011;3542;48.812;9.146;2023-03-12T05:34:11;9.73;;;6.30;;
7003;SDS011;3542;48.812;9.146;2023-03-12T05:36:38;11.77;;;6.90;;
7003;SDS011;3542;48.812;9.146;2023-03-12T05:39:03;8.70;;;6.00;;
7003;SDS011;3542;48.812;9.146;2023-03-12T05:41:29;10.83;;;5.87;;
7003;SDS011;3542;48.812;9.146;2023-03-12T05:43:55;12.20;;;5.57;;
7003;SDS011;3542;48.812;9.146;2023-03-12T05:46:22;6.93;;;5.40;;
7003;SDS011;3542;48.812;9.146;2023-03-12T05:48:48;10.83;;;6.10;;
7003;SDS011;3542;48.812;9.146;2023-03-12T05:51:14;7.70;;;5.50;;
7003;SDS011;3542;48.812;9.146;2023-03-12T05:53:40;13.30;;;6.20;;
7003;SDS011;3542;48.812;9.146;2023-03-12T05:56:07;6.63;;;5.67;;
7003;SDS011;3542;48.812;9.146;2023-03-12T05:58:35;9.67;;;6.13;;
7003;SDS011;3542;48.812;9.146;2023-03-12T06:01:02;9.87;;;5.20;;
7003;SDS011;3542;48.812;9.146;2023-03-12T06:03:34;6.33;;;5.10;;
7003;SDS011;3542;48.812;9.146;2023-03-12T06:06:00;7.00;;;6.03;;
7003;SDS011;3542;48.812;9.146;2023-03-12T06:08:25;11.37;;;6.40;;
7003;SDS011;3542;48.812;9.146;2023-03-12T06:10:51;11.40;;;6.33;;
7003;SDS011;3542;48.812;9.146;2023-03-12T06:13:19;8.30;;;6.27;;
7003;SDS011;3542;48.812;9.146;2023-03-12T06:15:45;9.93;;;6.70;;
7003;SDS011;3542;48.812;9.146;2023-03-12T06:18:10;7.60;;;6.87;;
7003;SDS011;3542;48.812;9.146;2023-03-12T06:20:36;9.70;;;6.40;;
7003;SDS011;3542;48.812;9.146;2023-03-12T06:23:01;12.47;;;6.30;;
7003;SDS011;3542;48.812;9.146;2023-03-12T06:25:27;12.40;;;6.37;;
7003;SDS011;3542;48.812;9.146;2023-03-12T06:27:52;9.80;;;7.20;;
7003;SDS011;3542;48.812;9.146;2023-03-12T06:30:18;11.97;;;6.77;;
7003;SDS011;3542;48.812;9.146;2023-03-12T06:32:44;8.10;;;6.50;;
7003;SDS011;3542;48.812;9.146;2023-03-12T06:35:09;6.53;;;5.77;;
7003;SDS011;3542;48.812;9.146;2023-03-12T06:37:35;13.30;;;6.57;;
7003;SDS011;3542;48.812;9.146;2023-03-12T06:40:00;7.57;;;6.17;;
7003;SDS011;3542;48.812;9.146;2023-03-12T06:42:26;7.60;;;6.27;;
7003;SDS011;3542;48.812;9.146;2023-03-12T06:44:51;8.30;;;6.63;;
7003;SDS011;3542;48.812;9.146;2023-03-12T06:47:17;11.43;;;6.27;;
7003;SDS011;3542;48.812;9.146;2023-03-12T06:49:43;9.07;;;6.00;;
7003;SDS011;3542;48.812;9.146;2023-03-12T06:52:09;10.43;;;6.70;;
7003;SDS011;3542;48.812;9.146;2023-03-12T06:54:34;15.33;;;7.40;;
7003;SDS011;3542;48.812;9.146;2023-03-12T06:57:00;6.87;;;6.00;;
7003;SDS011;3542;48.812;9.146;2023-03-12T06:59:25;11.10;;;6.93;;
7003;SDS011;3542;48.812;9.146;2023-03-12T07:01:51;17.40;;;8.63;;
7003;SDS011;3542;48.812;9.146;2023-03-12T07:04:17;7.33;;;6.47;;
7003;SDS011;3542;48.812;9.146;2023-03-12T07:06:42;16.93;;;7.10;;
7003;SDS011;3542;48.812;9.146;2023-03-12T07:09:08;10.53;;;6.90;;
7003;SDS011;3542;48.812;9.146;2023-03-12T07:11:34;12.63;;;6.90;;
7003;SDS011;3542;48.812;9.146;2023-03-12T07:14:00;7.33;;;6.40;;
7003;SDS011;3542;48.812;9.146;2023-03-12T07:16:25;7.97;;;7.17;;
7003;SDS011;3542;48.812;9.146;2023-03-12T07:18:51;10.07;;;7.63;;
7003;SDS011;3542;48.812;9.146;2023-03-12T07:21:17;8.97;;;7.80;;
7003;SDS011;3542;48.812;9.146;2023-03-12T07:23:47;10.43;;;7.50;;
7003;SDS011;3542;48.812;9.146;2023-03-12T07:26:14;12.33;;;7.23;;
7003;SDS011;3542;48.812;9.146;2023-03-12T07:28:40;9.27;;;7.77;;
7003;SDS011;3542;48.812;9.146;2023-03-12T07:31:05;12.17;;;7.07;;
7003;SDS011;3542;48.812;9.146;2023-03-12T07:33:31;19.20;;;7.27;;
7003;SDS011;3542;48.812;9.146;2023-03-12T07:35:57;9.23;;;6.03;;
7003;SDS011;3542;48.812;9.146;2023-03-12T07:38:23;7.50;;;6.53;;
7003;SDS011;3542;48.812;9.146;2023-03-12T07:40:49;12.10;;;7.43;;
7003;SDS011;3542;48.812;9.146;2023-03-12T07:43:19;6.40;;;5.80;;
7003;SDS011;3542;48.812;9.146;2023-03-12T07:45:45;7.90;;;5.60;;
7003;SDS011;3542;48.812;9.146;2023-03-12T07:48:10;9.00;;;6.53;;
7003;SDS011;3542;48.812;9.146;2023-03-12T07:50:36;10.83;;;5.80;;
7003;SDS011;3542;48.812;9.146;2023-03-12T07:53:02;11.20;;;7.10;;
7003;SDS011;3542;48.812;9.146;2023-03-12T07:55:29;10.33;;;5.67;;
7003;SDS011;3542;48.812;9.146;2023-03-12T07:57:55;8.60;;;6.10;;
7003;SDS011;3542;48.812;9.146;2023-03-12T08:00:23;7.10;;;6.00;;
7003;SDS011;3542;48.812;9.146;2023-03-12T08:02:49;5.90;;;5.40;;
7003;SDS011;3542;48.812;9.146;2023-03-12T08:05:15;10.17;;;5.33;;
7003;SDS011;3542;48.812;9.146;2023-03-12T08:07:40;6.90;;;5.70;;
7003;SDS011;3542;48.812;9.146;2023-03-12T08:10:06;9.00;;;6.53;;
7003;SDS011;3542;48.812;9.146;2023-03-12T08:12:33;14.80;;;6.23;;
7003;SDS011;3542;48.812;9.146;2023-03-12T08:14:58;11.27;;;7.40;;
7003;SDS011;3542;48.812;9.146;2023-03-12T08:17:24;12.00;;;7.20;;
7003;SDS011;3542;48.812;9.146;2023-03-12T08:19:50;8.50;;;7.20;;
7003;SDS011;3542;48.812;9.146;2023-03-12T08:22:15;8.10;;;7.30;;
7003;SDS011;3542;48.812;9.146;2023-03-12T08:24:41;9.13;;;7.47;;
7003;SDS011;3542;48.812;9.146;2023-03-12T08:27:07;15.27;;;7.03;;
7003;SDS011;3542;48.812;9.146;2023-03-12T08:29:33;10.80;;;7.50;;
7003;SDS011;3542;48.812;9.146;2023-03-12T08:31:59;8.27;;;6.60;;
7003;SDS011;3542;48.812;9.146;2023-03-12T08:34:25;8.10;;;5.67;;
7003;SDS011;3542;48.812;9.146;2023-03-12T08:36:51;9.67;;;7.87;;
7003;SDS011;3542;48.812;9.146;2023-03-12T08:39:16;12.00;;;7.77;;
7003;SDS011;3542;48.812;9.146;2023-03-12T08:41:41;15.10;;;6.30;;
7003;SDS011;3542;48.812;9.146;2023-03-12T08:44:07;9.20;;;7.13;;
7003;SDS011;3542;48.812;9.146;2023-03-12T08:46:32;7.70;;;6.73;;
7003;SDS011;3542;48.812;9.146;2023-03-12T08:48:58;9.00;;;7.20;;
7003;SDS011;3542;48.812;9.146;2023-03-12T08:51:24;7.17;;;5.70;;
7003;SDS011;3542;48.812;9.146;2023-03-12T08:53:50;8.33;;;6.40;;
7003;SDS011;3542;48.812;9.146;2023-03-12T08:56:15;7.97;;;6.17;;
7003;SDS011;3542;48.812;9.146;2023-03-12T08:58:41;10.10;;;7.10;;
7003;SDS011;3542;48.812;9.146;2023-03-12T09:01:08;11.70;;;7.13;;
7003;SDS011;3542;48.812;9.146;2023-03-12T09:03:35;14.53;;;7.70;;
7003;SDS011;3542;48.812;9.146;2023-03-12T09:06:01;7.30;;;6.60;;
7003;SDS011;3542;48.812;9.146;2023-03-12T09:08:28;19.57;;;12.27;;
7003;SDS011;3542;48.812;9.146;2023-03-12T09:10:53;13.97;;;7.70;;
7003;SDS011;3542;48.812;9.146;2023-03-12T09:13:19;8.17;;;7.40;;
7003;SDS011;3542;48.812;9.146;2023-03-12T09:15:44;7.63;;;6.60;;
7003;SDS011;3542;48.812;9.146;2023-03-12T09:18:10;9.03;;;7.90;;
7003;SDS011;3542;48.812;9.146;2023-03-12T09:20:35;9.57;;;6.67;;
7003;SDS011;3542;48.812;9.146;2023-03-12T09:23:01;9.97;;;6.50;;
7003;SDS011;3542;48.812;9.146;2023-03-12T09:25:26;7.80;;;6.43;;
7003;SDS011;3542;48.812;9.146;2023-03-12T09:27:52;8.30;;;6.10;;
7003;SDS011;3542;48.812;9.146;2023-03-12T09:30:18;10.03;;;7.60;;
7003;SDS011;3542;48.812;9.146;2023-03-12T09:32:45;9.10;;;5.87;;
7003;SDS011;3542;48.812;9.146;2023-03-12T09:35:12;7.17;;;5.90;;
7003;SDS011;3542;48.812;9.146;2023-03-12T09:37:38;6.83;;;5.93;;
7003;SDS011;3542;48.812;9.146;2023-03-12T09:40:04;7.47;;;5.50;;
7003;SDS011;3542;48.812;9.146;2023-03-12T09:42:45;6.90;;;5.97;;
7003;SDS011;3542;48.812;9.146;2023-03-12T09:45:26;7.73;;;6.33;;
7003;SDS011;3542;48.812;9.146;2023-03-12T09:47:59;8.27;;;6.27;;
7003;SDS011;3542;48.812;9.146;2023-03-12T09:50:28;9.30;;;6.60;;
7003;SDS011;3542;48.812;9.146;2023-03-12T09:52:58;6.93;;;6.13;;
7003;SDS011;3542;48.812;9.146;2023-03-12T09:55:37;8.57;;;6.63;;
7003;SDS011;3542;48.812;9.146;2023-03-12T09:58:08;6.63;;;5.87;;
7003;SDS011;3542;48.812;9.146;2023-03-12T10:00:40;7.63;;;6.00;;
7003;SDS011;3542;48.812;9.146;2023-03-12T10:06:29;11.23;;;7.67;;
7003;SDS011;3542;48.812;9.146;2023-03-12T10:09:12;7.60;;;6.63;;
7003;SDS011;3542;48.812;9.146;2023-03-12T10:12:03;10.70;;;6.73;;
7003;SDS011;3542;48.812;9.146;2023-03-12T10:20:21;8.03;;;6.30;;
7003;SDS011;3542;48.812;9.146;2023-03-12T10:23:12;7.67;;;5.97;;
7003;SDS011;3542;48.812;9.146;2023-03-12T10:28:48;4.63;;;4.17;;
7003;SDS011;3542;48.812;9.146;2023-03-12T10:31:24;2.60;;;2.40;;
7003;SDS011;3542;48.812;9.146;2023-03-12T10:33:56;1.30;;;1.20;;
7003;SDS011;3542;48.812;9.146;2023-03-12T10:36:35;2.70;;;1.03;;
7003;SDS011;3542;48.812;9.146;2023-03-12T10:39:03;1.50;;;1.40;;
7003;SDS011;3542;48.812;9.146;2023-03-12T10:41:31;1.27;;;1.27;;
7003;SDS011;3542;48.812;9.146;2023-03-12T10:43:59;1.50;;;1.03;;
7003;SDS011;3542;48.812;9.146;2023-03-12T10:49:22;1.50;;;1.40;;
7003;SDS011;3542;48.812;9.146;2023-03-12T10:54:39;4.10;;;1.73;;
7003;SDS011;3542;48.812;9.146;2023-03-12T10:57:07;10.70;;;2.50;;
7003;SDS011;3542;48.812;9.146;2023-03-12T10:59:34;8.43;;;1.60;;
7003;SDS011;3542;48.812;9.146;2023-03-12T11:02:02;7.23;;;1.37;;
7003;SDS011;3542;48.812;9.146;2023-03-12T11:04:54;8.00;;;1.50;;
7003;SDS011;3542;48.812;9.146;2023-03-12T11:07:21;8.13;;;1.90;;
7003;SDS011;3542;48.812;9.146;2023-03-12T11:12:31;10.67;;;1.60;;
7003;SDS011;3542;48.812;9.146;2023-03-12T11:14:59;6.53;;;1.30;;
7003;SDS011;3542;48.812;9.146;2023-03-12T11:17:36;7.33;;;1.80;;
7003;SDS011;3542;48.812;9.146;2023-03-12T11:20:16;8.60;;;2.60;;
7003;SDS011;3542;48.812;9.146;2023-03-12T11:22:48;9.80;;;2.60;;
7003;SDS011;3542;48.812;9.146;2023-03-12T11:25:25;6.83;;;1.70;;
7003;SDS011;3542;48.812;9.146;2023-03-12T11:27:53;7.70;;;1.87;;
7003;SDS011;3542;48.812;9.146;2023-03-12T11:30:28;2.43;;;1.60;;
7003;SDS011;3542;48.812;9.146;2023-03-12T11:33:00;2.30;;;1.07;;
7003;SDS011;3542;48.812;9.146;2023-03-12T11:38:16;7.07;;;0.90;;
7003;SDS011;3542;48.812;9.146;2023-03-12T11:41:10;3.20;;;1.03;;
7003;SDS011;3542;48.812;9.146;2023-03-12T11:43:54;3.10;;;0.90;;
7003;SDS011;3542;48.812;9.146;2023-03-12T11:46:43;3.03;;;1.20;;
7003;SDS011;3542;48.812;9.146;2023-03-12T12:00:17;2.00;;;0.80;;
7003;SDS011;3542;48.812;9.146;2023-03-12T12:05:36;1.90;;;0.80;;
7003;SDS011;3542;48.812;9.146;2023-03-12T12:08:18;2.80;;;0.80;;
7003;SDS011;3542;48.812;9.146;2023-03-12T12:11:18;1.23;;;0.83;;
7003;SDS011;3542;48.812;9.146;2023-03-12T12:19:21;2.10;;;1.33;;
7003;SDS011;3542;48.812;9.146;2023-03-12T12:25:00;2.93;;;1.53;;
7003;SDS011;3542;48.812;9.146;2023-03-12T12:30:50;1.63;;;1.20;;
7003;SDS011;3542;48.812;9.146;2023-03-12T12:36:18;2.10;;;0.77;;
7003;SDS011;3542;48.812;9.146;2023-03-12T12:38:51;1.37;;;1.10;;
7003;SDS011;3542;48.812;9.146;2023-03-12T12:41:25;3.17;;;0.87;;
7003;SDS011;3542;48.812;9.146;2023-03-12T12:43:54;3.90;;;1.10;;
7003;SDS011;3542;48.812;9.146;2023-03-12T12:46:25;3.90;;;1.90;;
7003;SDS011;3542;48.812;9.146;2023-03-12T12:48:56;2.83;;;0.87;;
7003;SDS011;3542;48.812;9.146;2023-03-12T12:51:30;2.57;;;2.00;;
7003;SDS011;3542;48.812;9.146;2023-03-12T13:01:56;3.33;;;1.23;;
7003;SDS011;3542;48.812;9.146;2023-03-12T13:04:23;6.40;;;1.00;;
7003;SDS011;3542;48.812;9.146;2023-03-12T13:07:34;3.77;;;1.27;;
7003;SDS011;3542;48.812;9.146;2023-03-12T13:09:47;6.80;;;1.63;;
7003;SDS011;3542;48.812;9.146;2023-03-12T13:14:52;4.33;;;1.50;;
7003;SDS011;3542;48.812;9.146;2023-03-12T13:17:35;2.43;;;1.50;;
7003;SDS011;3542;48.812;9.146;2023-03-12T13:20:20;3.30;;;1.80;;
7003;SDS011;3542;48.812;9.146;2023-03-12T13:33:48;5.13;;;1.73;;
7003;SDS011;3542;48.812;9.146;2023-03-12T13:38:51;7.03;;;1.63;;
7003;SDS011;3542;48.812;9.146;2023-03-12T13:46:56;5.27;;;1.40;;
7003;SDS011;3542;48.812;9.146;2023-03-12T13:49:25;4.97;;;1.50;;
7003;SDS011;3542;48.812;9.146;2023-03-12T13:52:09;8.57;;;2.00;;
7003;SDS011;3542;48.812;9.146;2023-03-12T13:54:42;4.50;;;1.83;;
7003;SDS011;3542;48.812;9.146;2023-03-12T13:57:19;5.13;;;2.00;;
7003;SDS011;3542;48.812;9.146;2023-03-12T13:59:53;8.67;;;2.53;;
7003;SDS011;3542;48.812;9.146;2023-03-12T14:02:23;4.83;;;1.30;;
7003;SDS011;3542;48.812;9.146;2023-03-12T14:05:05;8.03;;;3.90;;
7003;SDS011;3542;48.812;9.146;2023-03-12T14:07:39;8.50;;;1.93;;
7003;SDS011;3542;48.812;9.146;2023-03-12T14:16:29;8.10;;;1.83;;
7003;SDS011;3542;48.812;9.146;2023-03-12T14:19:02;8.47;;;1.53;;
7003;SDS011;3542;48.812;9.146;2023-03-12T14:21:31;5.30;;;1.37;;
7003;SDS011;3542;48.812;9.146;2023-03-12T14:24:00;8.13;;;1.60;;
7003;SDS011;3542;48.812;9.146;2023-03-12T14:26:32;6.70;;;2.10;;
7003;SDS011;3542;48.812;9.146;2023-03-12T14:29:01;11.43;;;1.47;;
7003;SDS011;3542;48.812;9.146;2023-03-12T14:31:34;3.40;;;1.43;;
7003;SDS011;3542;48.812;9.146;2023-03-12T14:34:07;7.37;;;1.50;;
7003;SDS011;3542;48.812;9.146;2023-03-12T14:42:00;5.53;;;1.40;;
7003;SDS011;3542;48.812;9.146;2023-03-12T14:44:30;7.73;;;1.70;;
7003;SDS011;3542;48.812;9.146;2023-03-12T14:47:02;4.80;;;1.40;;
7003;SDS011;3542;48.812;9.146;2023-03-12T14:49:39;8.03;;;1.43;;
7003;SDS011;3542;48.812;9.146;2023-03-12T14:52:06;3.97;;;1.27;;
7003;SDS011;3542;48.812;9.146;2023-03-12T14:54:34;3.00;;;1.10;;
7003;SDS011;3542;48.812;9.146;2023-03-12T14:57:00;6.80;;;1.80;;
7003;SDS011;3542;48.812;9.146;2023-03-12T14:59:33;6.93;;;1.57;;
7003;SDS011;3542;48.812;9.146;2023-03-12T15:02:06;5.53;;;1.40;;
7003;SDS011;3542;48.812;9.146;2023-03-12T15:04:37;6.00;;;1.37;;
7003;SDS011;3542;48.812;9.146;2023-03-12T15:07:03;10.10;;;1.27;;
7003;SDS011;3542;48.812;9.146;2023-03-12T15:09:31;4.80;;;1.30;;
7003;SDS011;3542;48.812;9.146;2023-03-12T15:12:01;4.80;;;1.43;;
7003;SDS011;3542;48.812;9.146;2023-03-12T15:14:29;4.97;;;0.90;;
7003;SDS011;3542;48.812;9.146;2023-03-12T15:16:59;3.70;;;1.10;;
7003;SDS011;3542;48.812;9.146;2023-03-12T15:19:26;9.07;;;1.30;;
7003;SDS011;3542;48.812;9.146;2023-03-12T15:22:04;7.43;;;1.50;;
7003;SDS011;3542;48.812;9.146;2023-03-12T15:24:38;4.77;;;1.20;;
7003;SDS011;3542;48.812;9.146;2023-03-12T15:29:48;8.93;;;3.10;;
7003;SDS011;3542;48.812;9.146;2023-03-12T15:32:15;5.30;;;1.50;;
7003;SDS011;3542;48.812;9.146;2023-03-12T15:34:41;4.97;;;1.83;;
7003;SDS011;3542;48.812;9.146;2023-03-12T15:37:23;3.43;;;1.20;;
7003;SDS011;3542;48.812;9.146;2023-03-12T15:39:53;4.50;;;1.40;;
7003;SDS011;3542;48.812;9.146;2023-03-12T15:42:21;1.63;;;0.90;;
7003;SDS011;3542;48.812;9.146;2023-03-12T15:44:50;6.23;;;1.70;;
7003;SDS011;3542;48.812;9.146;2023-03-12T15:47:22;14.73;;;1.93;;
7003;SDS011;3542;48.812;9.146;2023-03-12T15:50:00;5.50;;;1.00;;
7003;SDS011;3542;48.812;9.146;2023-03-12T15:52:34;3.40;;;1.17;;
7003;SDS011;3542;48.812;9.146;2023-03-12T15:57:44;2.77;;;1.00;;
7003;SDS011;3542;48.812;9.146;2023-03-12T16:02:45;2.73;;;1.63;;
7003;SDS011;3542;48.812;9.146;2023-03-12T16:05:13;5.00;;;1.70;;
7003;SDS011;3542;48.812;9.146;2023-03-12T16:07:38;5.30;;;1.30;;
7003;SDS011;3542;48.812;9.146;2023-03-12T16:10:04;8.60;;;1.60;;
7003;SDS011;3542;48.812;9.146;2023-03-12T16:12:34;5.33;;;1.50;;
7003;SDS011;3542;48.812;9.146;2023-03-12T16:15:02;5.27;;;2.10;;
7003;SDS011;3542;48.812;9.146;2023-03-12T16:17:27;2.77;;;1.20;;
7003;SDS011;3542;48.812;9.146;2023-03-12T16:19:53;7.27;;;1.60;;
7003;SDS011;3542;48.812;9.146;2023-03-12T16:22:18;7.00;;;1.17;;
7003;SDS011;3542;48.812;9.146;2023-03-12T16:24:46;5.93;;;1.40;;
7003;SDS011;3542;48.812;9.146;2023-03-12T16:27:13;5.27;;;1.40;;
7003;SDS011;3542;48.812;9.146;2023-03-12T16:29:40;8.20;;;1.90;;
7003;SDS011;3542;48.812;9.146;2023-03-12T16:32:15;7.97;;;1.90;;
7003;SDS011;3542;48.812;9.146;2023-03-12T16:34:41;2.80;;;0.93;;
7003;SDS011;3542;48.812;9.146;2023-03-12T16:37:08;4.43;;;1.50;;
7003;SDS011;3542;48.812;9.146;2023-03-12T16:39:35;7.20;;;1.37;;
7003;SDS011;3542;48.812;9.146;2023-03-12T16:42:00;4.70;;;1.20;;
7003;SDS011;3542;48.812;9.146;2023-03-12T16:44:27;15.03;;;2.30;;
7003;SDS011;3542;48.812;9.146;2023-03-12T16:46:55;9.37;;;2.57;;
7003;SDS011;3542;48.812;9.146;2023-03-12T16:49:21;2.70;;;1.50;;
7003;SDS011;3542;48.812;9.146;2023-03-12T16:51:47;6.30;;;1.50;;
7003;SDS011;3542;48.812;9.146;2023-03-12T16:54:12;5.77;;;1.90;;
7003;SDS011;3542;48.812;9.146;2023-03-12T16:56:42;3.30;;;1.33;;
7003;SDS011;3542;48.812;9.146;2023-03-12T16:59:12;9.97;;;1.83;;
7003;SDS011;3542;48.812;9.146;2023-03-12T17:01:50;12.67;;;2.03;;
7003;SDS011;3542;48.812;9.146;2023-03-12T17:04:16;8.93;;;1.63;;
7003;SDS011;3542;48.812;9.146;2023-03-12T17:06:41;6.70;;;1.23;;
7003;SDS011;3542;48.812;9.146;2023-03-12T17:09:07;3.67;;;1.40;;
7003;SDS011;3542;48.812;9.146;2023-03-12T17:11:32;3.37;;;1.23;;
7003;SDS011;3542;48.812;9.146;2023-03-12T17:14:00;4.00;;;1.30;;
7003;SDS011;3542;48.812;9.146;2023-03-12T17:16:42;11.67;;;1.80;;
7003;SDS011;3542;48.812;9.146;2023-03-12T17:19:07;5.93;;;2.30;;
7003;SDS011;3542;48.812;9.146;2023-03-12T17:21:33;8.80;;;1.83;;
7003;SDS011;3542;48.812;9.146;2023-03-12T17:23:58;4.93;;;1.50;;
7003;SDS011;3542;48.812;9.146;2023-03-12T17:26:24;6.53;;;1.60;;
7003;SDS011;3542;48.812;9.146;2023-03-12T17:28:49;11.00;;;2.00;;
7003;SDS011;3542;48.812;9.146;2023-03-12T17:31:15;7.60;;;1.93;;
7003;SDS011;3542;48.812;9.146;2023-03-12T17:33:40;6.20;;;1.77;;
7003;SDS011;3542;48.812;9.146;2023-03-12T17:36:07;7.10;;;1.13;;
7003;SDS011;3542;48.812;9.146;2023-03-12T17:38:34;3.77;;;1.60;;
7003;SDS011;3542;48.812;9.146;2023-03-12T17:41:00;4.03;;;1.07;;
7003;SDS011;3542;48.812;9.146;2023-03-12T17:43:26;5.50;;;1.70;;
7003;SDS011;3542;48.812;9.146;2023-03-12T17:45:52;7.17;;;1.57;;
7003;SDS011;3542;48.812;9.146;2023-03-12T17:48:18;4.20;;;1.40;;
7003;SDS011;3542;48.812;9.146;2023-03-12T17:50:44;6.00;;;1.53;;
7003;SDS011;3542;48.812;9.146;2023-03-12T17:53:09;6.13;;;1.60;;
7003;SDS011;3542;48.812;9.146;2023-03-12T17:55:37;14.13;;;2.30;;
7003;SDS011;3542;48.812;9.146;2023-03-12T17:58:03;9.23;;;1.53;;
7003;SDS011;3542;48.812;9.146;2023-03-12T18:00:30;4.57;;;1.90;;
7003;SDS011;3542;48.812;9.146;2023-03-12T18:02:55;8.73;;;1.90;;
7003;SDS011;3542;48.812;9.146;2023-03-12T18:05:21;12.10;;;4.57;;
7003;SDS011;3542;48.812;9.146;2023-03-12T18:07:47;2.83;;;1.80;;
7003;SDS011;3542;48.812;9.146;2023-03-12T18:10:13;10.63;;;2.10;;
7003;SDS011;3542;48.812;9.146;2023-03-12T18:12:39;7.13;;;2.10;;
7003;SDS011;3542;48.812;9.146;2023-03-12T18:15:05;4.40;;;1.37;;
7003;SDS011;3542;48.812;9.146;2023-03-12T18:17:31;9.13;;;2.07;;
7003;SDS011;3542;48.812;9.146;2023-03-12T18:19:57;5.10;;;1.33;;
7003;SDS011;3542;48.812;9.146;2023-03-12T18:22:22;6.97;;;2.00;;
7003;SDS011;3542;48.812;9.146;2023-03-12T18:24:48;7.73;;;2.20;;
7003;SDS011;3542;48.812;9.146;2023-03-12T18:27:14;5.27;;;2.17;;
7003;SDS011;3542;48.812;9.146;2023-03-12T18:29:39;7.60;;;2.57;;
7003;SDS011;3542;48.812;9.146;2023-03-12T18:32:05;4.67;;;2.03;;